ADDS METAR Data INFO
IDs: Format: Raw Decoded Include TAF

Data at: 0317 UTC 21 Sep 2017

KCOM 210255Z AUTO 00000KT 10SM SCT120 29/19 A2990 RMK AO2 T02900192
KCOM 210235Z AUTO 14004KT 10SM CLR 30/19 A2988 RMK AO2 T02950190
KCOM 210215Z AUTO 20006KT 10SM CLR 30/18 A2987 RMK AO2 LTG DSNT N T03010184
KCOM 210155Z AUTO 31006G15KT 10SM CLR 29/17 A2988 RMK AO2 LTG DSNT N T02860168
KCOM 210135Z AUTO 18007KT 10SM CLR 31/19 A2985 RMK AO2 LTG DSNT N T03050193
KCOM 210115Z AUTO 18008KT 10SM CLR 31/19 A2985 RMK AO2 LTG DSNT NW T03100190
KCOM 210055Z AUTO 17010KT 10SM CLR 31/19 A2984 RMK AO2 LTG DSNT NW T03110186
KCOM 210035Z AUTO 18010KT 10SM CLR 32/17 A2985 RMK AO2 LTG DSNT NW T03170173
KCOM 210010Z AUTO 17012KT 10SM CLR 33/17 A2983 RMK AO2 LTG DSNT W THRU N T03290172
KCOM 202355Z AUTO 16011G17KT 10SM CLR 34/17 A2981 RMK AO2 LTG DSNT N AND S T03410174 10361 20316
KCOM 202335Z AUTO 17010G15KT 10SM CLR 35/17 A2981 RMK AO2 T03510174
KCOM 202315Z AUTO 17008KT 10SM CLR 35/18 A2981 RMK AO2 T03450181
KCOM 202255Z AUTO 17008KT 10SM CLR 34/18 A2981 RMK AO2 LTG DSNT N T03400177
KCOM 202235Z AUTO 19009KT 10SM CLR 34/18 A2981 RMK AO2 LTG DSNT SW T03440177
KCOM 202215Z AUTO 17009G16KT 10SM CLR 35/18 A2981 RMK AO2 LTG DSNT SW T03450180
KCOM 202155Z AUTO 16011G17KT 10SM CLR 36/18 A2982 RMK AO2 T03590182
KCOM 202135Z AUTO 17010KT 10SM CLR 36/19 A2982 RMK AO2 T03600188
KCOM 202115Z AUTO 19007G17KT 10SM CLR 36/19 A2983 RMK AO2 T03560188
KCOM 202055Z AUTO 19009G15KT 10SM CLR 36/19 A2984 RMK AO2 T03560190
KCOM 202035Z AUTO 21011G16KT 10SM CLR 36/19 A2984 RMK AO2 T03550194
KCOM 202015Z AUTO 17012KT 10SM CLR 34/20 A2985 RMK AO2 T03410197
KCOM 201955Z AUTO 18012G18KT 10SM CLR 35/20 A2986 RMK AO2 T03450197
KCOM 201935Z AUTO 17013G18KT 10SM CLR 34/20 A2986 RMK AO2 T03380203
KCOM 201915Z AUTO 19011G21KT 10SM CLR 34/21 A2987 RMK AO2 T03380207
KCOM 201850Z AUTO 19014G17KT 10SM CLR 33/21 A2988 RMK AO2 T03300211
KCOM 201835Z AUTO 19012G18KT 10SM CLR 33/22 A2989 RMK AO2 T03280216
KCOM 201815Z AUTO 20012G17KT 10SM CLR 32/21 A2990 RMK AO2 T03200214
KCOM 201755Z AUTO 19015G18KT 10SM CLR 32/21 A2990 RMK AO2 T03160213 10316 20215
KCOM 201735Z AUTO 20013G21KT 10SM CLR 31/21 A2991 RMK AO2 T03080212
KCOM 201715Z AUTO 19014G21KT 10SM CLR 31/22 A2992 RMK AO2 T03050215
KCOM 201655Z AUTO 20012KT 10SM CLR 30/22 A2992 RMK AO2 T02990217
KCOM 201635Z AUTO 19013G20KT 10SM SCT025 29/22 A2993 RMK AO2 T02940217
KCOM 201615Z AUTO 19013G18KT 10SM SCT023 29/22 A2993 RMK AO2 T02850218
KCOM 201555Z AUTO 19009G19KT 10SM SCT019 28/22 A2993 RMK AO2 T02820221
KCOM 201535Z AUTO 18014G18KT 10SM BKN017 BKN023 27/22 A2993 RMK AO2 T02740221
KCOM 201515Z AUTO 20014KT 10SM BKN015 27/22 A2993 RMK AO2 T02650216
KCOM 201455Z AUTO 19008KT 10SM BKN012 26/22 A2993 RMK AO2 T02600216
KCOM 201435Z AUTO 18010KT 10SM SCT012 25/22 A2992 RMK AO2 T02510215
KCOM 201415Z AUTO 19009KT 10SM CLR 25/21 A2992 RMK AO2 T02460214
KCOM 201355Z AUTO 19007KT 10SM CLR 24/21 A2991 RMK AO2 T02360212
KCOM 201335Z AUTO 19006KT 7SM CLR 23/21 A2991 RMK AO2 T02250208
KCOM 201315Z AUTO 19006KT 7SM CLR 23/21 A2991 RMK AO2 T02250208
KCOM 201255Z AUTO 19005KT 7SM SCT015 22/21 A2991 RMK AO2 T02200206
KCOM 201235Z AUTO 21004KT 7SM BKN015 22/21 A2990 RMK AO2 T02180205
KCOM 201215Z AUTO 19005KT 10SM BKN015 22/21 A2989 RMK AO2 T02180205
KCOM 201155Z AUTO 18007KT 7SM SCT015 22/20 A2989 RMK AO2 T02150200 10221 20205
KCOM 201135Z AUTO 18005KT 7SM CLR 22/20 A2988 RMK AO2 T02150200
KCOM 201115Z AUTO 19006KT 10SM CLR 21/20 A2988 RMK AO2 T02110196
KCOM 201055Z AUTO 18004KT 10SM SCT015 21/19 A2988 RMK AO2 T02100193
KCOM 201035Z AUTO 19003KT 7SM BKN017 21/19 A2988 RMK AO2 T02070191
KCOM 201015Z AUTO 19004KT 10SM OVC017 21/19 A2988 RMK AO2 T02070189
KCOM 200955Z AUTO 20003KT 10SM SCT019 21/19 A2988 RMK AO2 T02100189
KCOM 200935Z AUTO 20003KT 10SM CLR 21/19 A2987 RMK AO2 T02130190
KCOM 200915Z AUTO 20004KT 10SM CLR 22/19 A2987 RMK AO2 T02150190
KCOM 200855Z AUTO 18003KT 10SM CLR 22/19 A2987 RMK AO2 T02150189
KCOM 200835Z AUTO 19005KT 10SM CLR 22/19 A2987 RMK AO2 T02170188
KCOM 200815Z AUTO 17005KT 10SM CLR 22/19 A2987 RMK AO2 T02170186
KCOM 200755Z AUTO 17006KT 10SM CLR 22/19 A2987 RMK AO2 T02190185
KCOM 200735Z AUTO 18004KT 10SM CLR 22/18 A2987 RMK AO2 T02180182
KCOM 200715Z AUTO 16006KT 10SM CLR 22/18 A2987 RMK AO2 T02200181
KCOM 200655Z AUTO 18006KT 10SM CLR 21/18 A2987 RMK AO2 T02090177
KCOM 200635Z AUTO 15005KT 10SM CLR 21/17 A2987 RMK AO2 T02110174
KCOM 200615Z AUTO 18005KT 10SM CLR 22/17 A2987 RMK AO2 T02210170
KCOM 200555Z AUTO 21005KT 10SM CLR 22/17 A2987 RMK AO2 T02180167 10236 20217 403560217
KCOM 200535Z AUTO 21005KT 10SM CLR 22/17 A2987 RMK AO2 T02180168
KCOM 200515Z AUTO 00000KT 10SM CLR 22/17 A2988 RMK AO2 T02200167
KCOM 200455Z AUTO 20003KT 10SM CLR 22/17 A2988 RMK AO2 T02200168
KCOM 200435Z AUTO 18004KT 10SM CLR 22/17 A2988 RMK AO2 T02180171
KCOM 200415Z AUTO 20004KT 10SM CLR 23/17 A2989 RMK AO2 T02250165
KCOM 200355Z AUTO 20005KT 10SM CLR 22/17 A2988 RMK AO2 T02220170
KCOM 200335Z AUTO 18006KT 10SM CLR 23/17 A2987 RMK AO2 T02270168
KCOM 200315Z AUTO 20005KT 10SM CLR 23/17 A2987 RMK AO2 LTG DSNT N T02330168
KCOM 200255Z AUTO 20007KT 10SM CLR 24/17 A2986 RMK AO2 LTG DSNT N T02350170
KCOM 200235Z AUTO 21009G15KT 10SM CLR 23/18 A2985 RMK AO2 T02330178
KCOM 200215Z AUTO 21008KT 10SM CLR 23/18 A2984 RMK AO2 T02290183
KCOM 200155Z AUTO 21006KT 10SM CLR 23/19 A2984 RMK AO2 T02250186
KCOM 200135Z AUTO 21008KT 10SM CLR 23/19 A2983 RMK AO2 T02260186
KCOM 200115Z AUTO 20009KT 10SM CLR 23/19 A2982 RMK AO2 T02270186
KCOM 200055Z AUTO 19010KT 10SM SCT040 SCT060 SCT070 23/19 A2984 RMK AO2 LTG DSNT S T02300186
KCOM 200035Z AUTO 19016G23KT 10SM -VCTSRA SCT044 BKN060 OVC080 23/18 A2984 RMK AO2 LTG DSNT E SE AND NW T02300184
KCOM 200015Z AUTO 20019G27KT 2SM TSRA SCT043 BKN050 OVC070 23/19 A2985 RMK AO2 LTG DSNT ALQS T02260190
KCOM 192355Z AUTO 20020G31KT 7SM TSRA SCT070 BKN095 22/19 A2987 RMK AO2 LTG DSNT ALQS T02240190 10356 20224
KCOM 192335Z AUTO 19018G27KT 10SM -TSRA CLR 23/18 A2987 RMK AO2 LTG DSNT ALQS T02310180
KCOM 192315Z AUTO 18026G33KT 10SM -RA SCT075 SCT085 SCT110 26/19 A2984 RMK AO2 LTG DSNT ALQS T02600192
KCOM 192255Z AUTO 18016G23KT 10SM VCTS SCT075 SCT085 SCT110 30/17 A2982 RMK AO2 LTG DSNT ALQS T03030168
KCOM 192235Z AUTO 14014G19KT 10SM VCTS CLR 32/16 A2979 RMK AO2 LTG DSNT SE THRU SW T03210164
KCOM 192215Z AUTO 13014KT 10SM CLR 34/16 A2978 RMK AO2 LTG DSNT SE THRU SW T03410159
KCOM 192155Z AUTO 17011KT 10SM CLR 35/16 A2980 RMK AO2 LTG DSNT SE AND S T03460160
KCOM 192135Z AUTO 19014G18KT 10SM CLR 35/16 A2980 RMK AO2 LTG DSNT SE AND S T03490160
KCOM 192115Z AUTO 18010KT 10SM VCTS CLR 35/16 A2980 RMK AO2 LTG DSNT SE T03450160
KCOM 192055Z AUTO 17012G16KT 10SM VCTS CLR 35/18 A2982 RMK AO2 LTG DSNT SE T03460175
KCOM 192035Z AUTO 18009KT 10SM CLR 33/10 A2983 RMK AO2 LTG DSNT SE T03320099
KCOM 192015Z AUTO 19013G19KT 10SM -DZ CLR 31/19 A2985 RMK AO2 LTG DSNT S AND SW T03110189
KCOM 191955Z AUTO 22010G16KT 10SM VCTS SCT070 SCT090 33/17 A2987 RMK AO2 LTG DSNT SW T03300172
KCOM 191935Z AUTO 21008KT 10SM VCTS SCT055 SCT070 33/18 A2988 RMK AO2 LTG DSNT W AND NW T03300180
KCOM 191915Z AUTO 22012G19KT 10SM SCT055 SCT070 SCT080 34/18 A2988 RMK AO2 LTG DSNT SW THRU NW T03350180
KCOM 191855Z AUTO 20013G16KT 10SM CLR 35/18 A2989 RMK AO2 LTG DSNT W T03540179
KCOM 191835Z AUTO 23013G17KT 10SM SCT050 SCT065 SCT090 35/18 A2990 RMK AO2 T03490177
KCOM 191815Z AUTO 22010G19KT 10SM SCT050 SCT060 SCT085 34/19 A2991 RMK AO2 T03440185
KCOM 191755Z AUTO 20015G18KT 10SM SCT048 SCT060 34/19 A2992 RMK AO2 T03400186 10343 20230
KCOM 191735Z AUTO 22011G20KT 10SM SCT046 34/19 A2993 RMK AO2 T03350191
KCOM 191715Z AUTO 20014G20KT 10SM SCT044 34/19 A2994 RMK AO2 T03350194
KCOM 191655Z AUTO 19015KT 10SM CLR 33/20 A2994 RMK AO2 T03280197
KCOM 191635Z AUTO 19011G16KT 10SM CLR 32/20 A2995 RMK AO2 T03200200
KCOM 191615Z AUTO 20012KT 10SM CLR 31/20 A2996 RMK AO2 T03100200
KCOM 191555Z AUTO 19011G18KT 10SM CLR 30/20 A2996 RMK AO2 T03020201
KCOM 191535Z AUTO 20009G18KT 10SM CLR 29/20 A2996 RMK AO2 T02940202